Terminal Aerodrome Forecast
Issued by NWS Sterling, VA

Current Version | Previous Version | Text Only | Print | Product List | Glossary Off
Versions: 1 2 3 4 5 6 7 8 9 10 11 12 13 14 15 16 17 18 19 20 21 22 23

000
FTUS41 KLWX 230529
TAFIAD
TAF
KIAD 230529Z 2306/2412 35005KT 5SM BR BKN120 BKN200
     FM231200 36005KT P6SM BKN200
     FM231800 06005KT P6SM BKN130
     FM240300 VRB03KT 6SM -RA BR OVC045
     FM240600 04004KT 6SM -RA BR OVC030
     FM240900 03005KT 6SM RA BR OVC015=

USA.gov is the U.S. government's official web portal to all federal, state and local government web resources and services.